createdAt,value
2022-10-13T07:13:46.829Z,101452.44
2022-10-13T07:16:16.244Z,101452.44
2022-10-13T07:18:44.111Z,101454.50
2022-10-13T07:21:11.516Z,101453.69
2022-10-13T07:23:39.245Z,101463.94
2022-10-13T07:26:11.547Z,101458.34
2022-10-13T07:28:39.828Z,101451.72
2022-10-13T07:31:10.984Z,101460.91
2022-10-13T07:33:38.725Z,101456.34
2022-10-13T07:36:07.316Z,101464.25
2022-10-13T07:38:36.021Z,101460.69
2022-10-13T07:41:06.285Z,101457.66
2022-10-13T07:43:35.414Z,101468.91
2022-10-13T07:46:06.555Z,101458.97
2022-10-13T07:48:34.758Z,101452.09
2022-10-13T07:51:07.383Z,101440.78
2022-10-13T07:53:35.516Z,101444.75
2022-10-13T07:56:05.351Z,101443.00
2022-10-13T07:58:34.043Z,101442.75
2022-10-13T08:01:02.531Z,101442.78
2022-10-13T08:03:31.422Z,101436.91
2022-10-13T08:06:00.566Z,101428.59
2022-10-13T08:08:28.636Z,101424.16
2022-10-13T08:11:01.182Z,101428.47
2022-10-13T08:13:28.824Z,101427.78
2022-10-13T08:16:00.332Z,101430.56
2022-10-13T08:18:29.621Z,101429.06
2022-10-13T08:21:33.192Z,101427.94
2022-10-13T08:23:49.480Z,101423.87
2022-10-13T08:26:23.983Z,101422.56
2022-10-13T08:31:41.835Z,101424.16
2022-10-13T08:34:10.766Z,101426.09
2022-10-13T08:36:39.012Z,101419.41
2022-10-13T08:39:07.047Z,101425.81
2022-10-13T08:41:45.668Z,101424.94
2022-10-13T08:47:32.423Z,101419.38
2022-10-13T08:50:04.768Z,101420.22
2022-10-13T08:52:57.325Z,101417.22
2022-10-13T08:55:31.929Z,101416.37
2022-10-13T08:58:00.960Z,101404.22
2022-10-13T09:00:29.814Z,101415.47
2022-10-13T09:03:22.846Z,101404.25
2022-10-13T09:06:05.282Z,101403.03
2022-10-13T09:08:45.424Z,101405.59
2022-10-13T09:11:13.461Z,101415.22
2022-10-13T09:13:40.928Z,101402.81
2022-10-13T09:16:08.497Z,101409.69
2022-10-13T09:18:38.622Z,101400.31
2022-10-13T09:21:18.501Z,101407.84
2022-10-13T09:23:46.624Z,101401.56
2022-10-13T09:26:25.053Z,101405.88
2022-10-13T09:28:53.161Z,101408.91
2022-10-13T09:31:25.645Z,101409.25
2022-10-13T09:34:19.398Z,101382.44
2022-10-13T09:37:02.856Z,101395.66
2022-10-13T09:39:32.552Z,101393.31
2022-10-13T09:42:19.300Z,101388.78
2022-10-13T09:44:48.878Z,101385.81
2022-10-13T09:47:25.284Z,101387.88
2022-10-13T09:50:18.037Z,101386.84
2022-10-13T09:52:48.046Z,101383.69
2022-10-13T09:55:34.557Z,101386.03
2022-10-13T09:58:34.959Z,101379.22
2022-10-13T10:01:07.925Z,101380.56
2022-10-13T10:03:40.850Z,101379.06
2022-10-13T10:06:19.056Z,101375.59
2022-10-13T10:09:03.382Z,101381.25
2022-10-13T10:11:41.320Z,101369.56
2022-10-13T10:14:21.911Z,101368.41
2022-10-13T10:16:59.894Z,101359.94
2022-10-13T10:19:58.603Z,101371.75
2022-10-13T10:22:37.286Z,101361.59
2022-10-13T10:25:25.935Z,101353.59
2022-10-13T10:28:31.300Z,101357.25
2022-10-13T10:31:13.903Z,101353.22
2022-10-13T10:34:06.556Z,101354.75
2022-10-13T10:36:50.427Z,101350.91
2022-10-13T10:39:29.157Z,101342.09
2022-10-13T10:42:08.271Z,101333.03
2022-10-13T10:44:47.898Z,101324.63
2022-10-13T10:47:30.234Z,101327.34
2022-10-13T10:50:03.532Z,101327.97
2022-10-13T10:53:06.415Z,101315.97
2022-10-13T10:55:33.966Z,101315.78
2022-10-13T10:58:13.863Z,101318.63
2022-10-13T11:00:51.145Z,101315.84
2022-10-13T11:03:37.501Z,101304.78
2022-10-13T11:06:22.517Z,101305.00
2022-10-13T11:08:50.852Z,101296.28
2022-10-13T11:11:33.379Z,101285.56
2022-10-13T11:14:05.471Z,101280.13
2022-10-13T11:16:52.732Z,101276.78
2022-10-13T11:19:38.372Z,101285.34
2022-10-13T11:22:05.769Z,101290.31
2022-10-13T11:24:33.883Z,101279.28
2022-10-13T11:27:16.778Z,101273.91
2022-10-13T11:29:48.807Z,101270.28
2022-10-13T11:32:25.079Z,101267.91
2022-10-13T11:35:05.996Z,101266.16
2022-10-13T11:38:06.648Z,101263.81
2022-10-13T11:41:00.100Z,101263.47
2022-10-13T11:43:36.805Z,101259.22
2022-10-13T11:46:07.495Z,101260.72
2022-10-13T11:48:51.371Z,101260.03
2022-10-13T11:51:55.859Z,101254.06
2022-10-13T11:54:39.520Z,101254.75
2022-10-13T11:57:23.807Z,101245.31
2022-10-13T11:59:55.389Z,101244.72
2022-10-13T12:02:27.746Z,101243.41
2022-10-13T12:05:00.508Z,101235.62
2022-10-13T12:07:34.627Z,101233.16
2022-10-13T12:10:07.219Z,101229.72
2022-10-13T12:12:34.948Z,101215.31
2022-10-13T12:15:37.348Z,101215.50
